This is the latest recevied weather packets stored in our database for station/object YN8O-13. If no packets are shown the sender has not sent any weather packets the latest 1 day(s).
| Time | Temp. | Humidity | Pressure | Rain* | Wind** | Luminosity | Snow |
|---|---|---|---|---|---|---|---|
| 1778093040 | 32.78° C | 27% | 1011 hPa | 0 mm | - | - | - |
| 1778091239 | 31.67° C | 31% | 1012 hPa | 0 mm | - | - | - |
| 1778090038 | 31.67° C | 30% | 1012 hPa | 0 mm | - | - | - |
| 1778088237 | 30° C | 36% | 1013 hPa | 0 mm | - | - | - |
| 1778087637 | 30° C | 36% | 1013 hPa | 0 mm | - | - | - |
| 1778086436 | 30° C | 33% | 1013 hPa | 0 mm | - | - | - |
| 1778085836 | 29.44° C | 34% | 1013 hPa | 0 mm | - | - | - |
| 1778084635 | 29.44° C | 40% | 1014 hPa | 0 mm | - | - | - |
| 1778084035 | 28.89° C | 39% | 1014 hPa | 0 mm | - | - | - |
| 1778082834 | 28.89° C | 37% | 1014 hPa | 0 mm | - | - | - |
| 1778080433 | 27.22° C | 47% | 1014 hPa | 0 mm | - | - | - |
| 1778079232 | 27.22° C | 46% | 1014 hPa | 0 mm | - | - | - |
| 1778078031 | 25.56° C | 56% | 1014 hPa | 0 mm | - | - | - |
| 1778077431 | 25.56° C | 56% | 1014 hPa | 0 mm | - | - | - |
| 1778076230 | 25.56° C | 56% | 1014 hPa | 0 mm | - | - | - |
| 1778075630 | 25.56° C | 56% | 1014 hPa | 0 mm | - | - | - |
| 1778074429 | 23.89° C | 63% | 1014 hPa | 0 mm | - | - | - |
| 1778071427 | 23.89° C | 63% | 1014 hPa | 0 mm | - | - | - |
| 1778066024 | 22.78° C | 62% | 1013 hPa | 0 mm | - | - | - |
| 1778065424 | 22.78° C | 62% | 1013 hPa | 0 mm | - | - | - |
| 1778064223 | 22.78° C | 62% | 1013 hPa | 0 mm | - | - | - |
| 1778063022 | 22.78° C | 62% | 1013 hPa | 0 mm | - | - | - |
| 1778061821 | 22.78° C | 62% | 1013 hPa | 0 mm | - | - | - |
| 1778061220 | 22.78° C | 62% | 1013 hPa | 0 mm | - | - | - |
| 1778060620 | 22.78° C | 62% | 1013 hPa | 0 mm | - | - | - |
* Rain latest hour (hover to see other rain measurements)
** Current wind speed in m/s (hover to see current wind gust speed)